sensor_id;sensor_type;location;lat;lon;timestamp;P1;durP1;ratioP1;P2;durP2;ratioP2
58697;SDS011;44475;53.206;-6.106;2023-05-29T00:00:31;5.78;;;2.20;;
58697;SDS011;44475;53.206;-6.106;2023-05-29T00:02:58;5.50;;;2.67;;
58697;SDS011;44475;53.206;-6.106;2023-05-29T00:05:24;7.75;;;2.35;;
58697;SDS011;44475;53.206;-6.106;2023-05-29T00:07:50;7.90;;;2.60;;
58697;SDS011;44475;53.206;-6.106;2023-05-29T00:10:17;6.80;;;2.20;;
58697;SDS011;44475;53.206;-6.106;2023-05-29T00:12:43;6.60;;;2.22;;
58697;SDS011;44475;53.206;-6.106;2023-05-29T00:15:09;6.85;;;2.15;;
58697;SDS011;44475;53.206;-6.106;2023-05-29T00:17:37;5.80;;;2.13;;
58697;SDS011;44475;53.206;-6.106;2023-05-29T00:20:05;6.63;;;2.33;;
58697;SDS011;44475;53.206;-6.106;2023-05-29T00:22:34;6.45;;;2.08;;
58697;SDS011;44475;53.206;-6.106;2023-05-29T00:25:04;4.90;;;2.40;;
58697;SDS011;44475;53.206;-6.106;2023-05-29T00:27:31;5.75;;;2.40;;
58697;SDS011;44475;53.206;-6.106;2023-05-29T00:29:58;4.28;;;2.45;;
58697;SDS011;44475;53.206;-6.106;2023-05-29T00:32:25;5.65;;;2.40;;
58697;SDS011;44475;53.206;-6.106;2023-05-29T00:34:52;5.97;;;2.25;;
58697;SDS011;44475;53.206;-6.106;2023-05-29T00:37:20;7.43;;;2.30;;
58697;SDS011;44475;53.206;-6.106;2023-05-29T00:39:49;5.22;;;1.90;;
58697;SDS011;44475;53.206;-6.106;2023-05-29T00:42:16;6.60;;;2.30;;
58697;SDS011;44475;53.206;-6.106;2023-05-29T00:44:42;5.70;;;2.10;;
58697;SDS011;44475;53.206;-6.106;2023-05-29T00:47:08;7.43;;;2.20;;
58697;SDS011;44475;53.206;-6.106;2023-05-29T00:49:35;6.38;;;2.20;;
58697;SDS011;44475;53.206;-6.106;2023-05-29T00:52:02;5.32;;;2.25;;
58697;SDS011;44475;53.206;-6.106;2023-05-29T00:54:34;4.75;;;2.20;;
58697;SDS011;44475;53.206;-6.106;2023-05-29T00:57:01;7.10;;;2.47;;
58697;SDS011;44475;53.206;-6.106;2023-05-29T00:59:30;6.13;;;2.30;;
58697;SDS011;44475;53.206;-6.106;2023-05-29T01:01:59;4.97;;;2.08;;
58697;SDS011;44475;53.206;-6.106;2023-05-29T01:04:27;4.10;;;1.85;;
58697;SDS011;44475;53.206;-6.106;2023-05-29T01:06:53;5.97;;;2.20;;
58697;SDS011;44475;53.206;-6.106;2023-05-29T01:09:21;4.15;;;1.85;;
58697;SDS011;44475;53.206;-6.106;2023-05-29T01:17:47;5.10;;;2.20;;
58697;SDS011;44475;53.206;-6.106;2023-05-29T01:20:38;5.13;;;2.13;;
58697;SDS011;44475;53.206;-6.106;2023-05-29T01:29:00;4.82;;;2.28;;
58697;SDS011;44475;53.206;-6.106;2023-05-29T01:31:29;5.10;;;2.22;;
58697;SDS011;44475;53.206;-6.106;2023-05-29T01:33:57;4.75;;;2.05;;
58697;SDS011;44475;53.206;-6.106;2023-05-29T01:36:27;3.92;;;1.88;;
58697;SDS011;44475;53.206;-6.106;2023-05-29T01:38:55;5.57;;;2.10;;
58697;SDS011;44475;53.206;-6.106;2023-05-29T01:41:23;5.40;;;1.90;;
58697;SDS011;44475;53.206;-6.106;2023-05-29T01:43:51;7.00;;;2.38;;
58697;SDS011;44475;53.206;-6.106;2023-05-29T01:46:18;4.80;;;2.10;;
58697;SDS011;44475;53.206;-6.106;2023-05-29T01:48:46;5.10;;;2.20;;
58697;SDS011;44475;53.206;-6.106;2023-05-29T01:51:13;3.88;;;2.20;;
58697;SDS011;44475;53.206;-6.106;2023-05-29T01:53:40;5.05;;;2.20;;
58697;SDS011;44475;53.206;-6.106;2023-05-29T01:56:07;5.93;;;2.22;;
58697;SDS011;44475;53.206;-6.106;2023-05-29T01:58:35;5.45;;;2.10;;
58697;SDS011;44475;53.206;-6.106;2023-05-29T02:01:03;6.28;;;2.28;;
58697;SDS011;44475;53.206;-6.106;2023-05-29T02:03:31;4.82;;;2.10;;
58697;SDS011;44475;53.206;-6.106;2023-05-29T02:05:58;5.78;;;2.22;;
58697;SDS011;44475;53.206;-6.106;2023-05-29T02:08:26;4.22;;;2.00;;
58697;SDS011;44475;53.206;-6.106;2023-05-29T02:10:52;4.85;;;2.30;;
58697;SDS011;44475;53.206;-6.106;2023-05-29T02:13:20;4.72;;;2.05;;
58697;SDS011;44475;53.206;-6.106;2023-05-29T02:15:47;4.38;;;2.13;;
58697;SDS011;44475;53.206;-6.106;2023-05-29T02:18:14;4.15;;;1.92;;
58697;SDS011;44475;53.206;-6.106;2023-05-29T02:20:43;5.32;;;2.20;;
58697;SDS011;44475;53.206;-6.106;2023-05-29T02:23:16;4.00;;;2.05;;
58697;SDS011;44475;53.206;-6.106;2023-05-29T02:25:44;3.90;;;1.90;;
58697;SDS011;44475;53.206;-6.106;2023-05-29T02:28:11;5.55;;;2.00;;
58697;SDS011;44475;53.206;-6.106;2023-05-29T02:30:38;4.07;;;2.08;;
58697;SDS011;44475;53.206;-6.106;2023-05-29T02:33:05;5.43;;;2.40;;
58697;SDS011;44475;53.206;-6.106;2023-05-29T02:35:33;5.85;;;2.25;;
58697;SDS011;44475;53.206;-6.106;2023-05-29T02:37:59;4.03;;;2.20;;
58697;SDS011;44475;53.206;-6.106;2023-05-29T02:40:26;5.38;;;2.25;;
58697;SDS011;44475;53.206;-6.106;2023-05-29T02:42:52;4.60;;;2.30;;
58697;SDS011;44475;53.206;-6.106;2023-05-29T02:45:18;3.00;;;1.92;;
58697;SDS011;44475;53.206;-6.106;2023-05-29T02:47:45;4.63;;;1.92;;
58697;SDS011;44475;53.206;-6.106;2023-05-29T02:50:11;3.58;;;1.92;;
58697;SDS011;44475;53.206;-6.106;2023-05-29T02:52:40;4.30;;;2.13;;
58697;SDS011;44475;53.206;-6.106;2023-05-29T02:55:06;4.43;;;1.98;;
58697;SDS011;44475;53.206;-6.106;2023-05-29T02:57:33;5.00;;;2.28;;
58697;SDS011;44475;53.206;-6.106;2023-05-29T02:59:59;5.30;;;2.15;;
58697;SDS011;44475;53.206;-6.106;2023-05-29T03:02:26;4.22;;;1.92;;
58697;SDS011;44475;53.206;-6.106;2023-05-29T03:04:52;4.15;;;1.95;;
58697;SDS011;44475;53.206;-6.106;2023-05-29T03:07:19;4.95;;;2.08;;
58697;SDS011;44475;53.206;-6.106;2023-05-29T03:09:45;3.53;;;1.90;;
58697;SDS011;44475;53.206;-6.106;2023-05-29T03:12:11;6.28;;;2.15;;
58697;SDS011;44475;53.206;-6.106;2023-05-29T03:14:38;4.00;;;2.05;;
58697;SDS011;44475;53.206;-6.106;2023-05-29T03:17:09;4.43;;;2.10;;
58697;SDS011;44475;53.206;-6.106;2023-05-29T03:19:35;4.70;;;2.00;;
58697;SDS011;44475;53.206;-6.106;2023-05-29T03:22:02;5.35;;;2.08;;
58697;SDS011;44475;53.206;-6.106;2023-05-29T03:24:31;4.78;;;2.08;;
58697;SDS011;44475;53.206;-6.106;2023-05-29T03:27:00;4.10;;;1.92;;
58697;SDS011;44475;53.206;-6.106;2023-05-29T03:29:29;4.20;;;1.92;;
58697;SDS011;44475;53.206;-6.106;2023-05-29T03:32:00;5.32;;;2.10;;
58697;SDS011;44475;53.206;-6.106;2023-05-29T03:34:30;4.80;;;2.10;;
58697;SDS011;44475;53.206;-6.106;2023-05-29T03:36:58;4.68;;;2.10;;
58697;SDS011;44475;53.206;-6.106;2023-05-29T03:39:26;3.70;;;2.00;;
58697;SDS011;44475;53.206;-6.106;2023-05-29T03:41:52;3.70;;;2.00;;
58697;SDS011;44475;53.206;-6.106;2023-05-29T03:44:18;4.97;;;2.08;;
58697;SDS011;44475;53.206;-6.106;2023-05-29T03:46:45;4.10;;;2.00;;
58697;SDS011;44475;53.206;-6.106;2023-05-29T03:49:12;4.47;;;2.10;;
58697;SDS011;44475;53.206;-6.106;2023-05-29T03:51:41;3.67;;;1.80;;
58697;SDS011;44475;53.206;-6.106;2023-05-29T03:54:07;4.35;;;1.90;;
58697;SDS011;44475;53.206;-6.106;2023-05-29T03:56:34;5.03;;;2.10;;
58697;SDS011;44475;53.206;-6.106;2023-05-29T03:59:01;3.45;;;1.75;;
58697;SDS011;44475;53.206;-6.106;2023-05-29T04:01:27;4.47;;;1.90;;
58697;SDS011;44475;53.206;-6.106;2023-05-29T04:03:54;4.47;;;2.00;;
58697;SDS011;44475;53.206;-6.106;2023-05-29T04:06:20;5.28;;;2.00;;
58697;SDS011;44475;53.206;-6.106;2023-05-29T04:08:47;3.78;;;2.05;;
58697;SDS011;44475;53.206;-6.106;2023-05-29T04:11:13;3.97;;;2.10;;
58697;SDS011;44475;53.206;-6.106;2023-05-29T04:13:40;5.85;;;2.65;;
58697;SDS011;44475;53.206;-6.106;2023-05-29T04:16:06;5.05;;;2.10;;
58697;SDS011;44475;53.206;-6.106;2023-05-29T04:18:33;4.85;;;2.00;;
58697;SDS011;44475;53.206;-6.106;2023-05-29T04:20:59;4.40;;;2.00;;
58697;SDS011;44475;53.206;-6.106;2023-05-29T04:23:26;5.15;;;2.10;;
58697;SDS011;44475;53.206;-6.106;2023-05-29T04:25:52;4.72;;;2.10;;
58697;SDS011;44475;53.206;-6.106;2023-05-29T04:28:23;5.63;;;2.13;;
58697;SDS011;44475;53.206;-6.106;2023-05-29T04:30:50;3.90;;;2.00;;
58697;SDS011;44475;53.206;-6.106;2023-05-29T04:33:17;3.63;;;2.00;;
58697;SDS011;44475;53.206;-6.106;2023-05-29T04:35:47;4.10;;;1.90;;
58697;SDS011;44475;53.206;-6.106;2023-05-29T04:38:14;3.75;;;2.10;;
58697;SDS011;44475;53.206;-6.106;2023-05-29T04:40:41;3.92;;;1.98;;
58697;SDS011;44475;53.206;-6.106;2023-05-29T04:43:10;3.15;;;1.88;;
58697;SDS011;44475;53.206;-6.106;2023-05-29T04:45:57;5.70;;;2.10;;
58697;SDS011;44475;53.206;-6.106;2023-05-29T04:48:24;3.17;;;1.90;;
58697;SDS011;44475;53.206;-6.106;2023-05-29T04:50:50;4.75;;;1.90;;
58697;SDS011;44475;53.206;-6.106;2023-05-29T04:53:17;4.63;;;2.17;;
58697;SDS011;44475;53.206;-6.106;2023-05-29T04:55:43;4.80;;;2.08;;
58697;SDS011;44475;53.206;-6.106;2023-05-29T04:58:10;4.05;;;2.00;;
58697;SDS011;44475;53.206;-6.106;2023-05-29T05:00:38;4.55;;;2.20;;
58697;SDS011;44475;53.206;-6.106;2023-05-29T05:03:04;3.80;;;2.20;;
58697;SDS011;44475;53.206;-6.106;2023-05-29T05:05:32;4.70;;;1.90;;
58697;SDS011;44475;53.206;-6.106;2023-05-29T05:08:00;4.45;;;1.90;;
58697;SDS011;44475;53.206;-6.106;2023-05-29T05:10:26;4.65;;;2.22;;
58697;SDS011;44475;53.206;-6.106;2023-05-29T05:12:53;5.15;;;2.33;;
58697;SDS011;44475;53.206;-6.106;2023-05-29T05:15:21;3.40;;;2.00;;
58697;SDS011;44475;53.206;-6.106;2023-05-29T05:17:47;4.53;;;1.80;;
58697;SDS011;44475;53.206;-6.106;2023-05-29T05:20:15;5.28;;;2.13;;
58697;SDS011;44475;53.206;-6.106;2023-05-29T05:22:43;4.82;;;2.10;;
58697;SDS011;44475;53.206;-6.106;2023-05-29T05:25:10;5.28;;;2.10;;
58697;SDS011;44475;53.206;-6.106;2023-05-29T05:27:37;3.33;;;1.95;;
58697;SDS011;44475;53.206;-6.106;2023-05-29T05:30:03;4.97;;;2.03;;
58697;SDS011;44475;53.206;-6.106;2023-05-29T05:32:30;4.47;;;2.28;;
58697;SDS011;44475;53.206;-6.106;2023-05-29T05:37:30;4.85;;;1.98;;
58697;SDS011;44475;53.206;-6.106;2023-05-29T05:39:56;5.60;;;2.28;;
58697;SDS011;44475;53.206;-6.106;2023-05-29T05:42:25;5.00;;;2.25;;
58697;SDS011;44475;53.206;-6.106;2023-05-29T05:45:00;4.47;;;2.22;;
58697;SDS011;44475;53.206;-6.106;2023-05-29T05:47:28;4.82;;;2.10;;
58697;SDS011;44475;53.206;-6.106;2023-05-29T05:49:56;4.85;;;2.30;;
58697;SDS011;44475;53.206;-6.106;2023-05-29T05:52:23;4.15;;;2.08;;
58697;SDS011;44475;53.206;-6.106;2023-05-29T05:54:50;3.78;;;1.90;;
58697;SDS011;44475;53.206;-6.106;2023-05-29T05:57:17;4.68;;;2.17;;
58697;SDS011;44475;53.206;-6.106;2023-05-29T05:59:44;5.43;;;2.30;;
58697;SDS011;44475;53.206;-6.106;2023-05-29T06:02:10;4.25;;;2.10;;
58697;SDS011;44475;53.206;-6.106;2023-05-29T06:04:37;3.83;;;2.08;;
58697;SDS011;44475;53.206;-6.106;2023-05-29T06:07:03;3.63;;;2.00;;
58697;SDS011;44475;53.206;-6.106;2023-05-29T06:09:30;5.25;;;2.40;;
58697;SDS011;44475;53.206;-6.106;2023-05-29T06:11:56;4.47;;;2.30;;
58697;SDS011;44475;53.206;-6.106;2023-05-29T06:14:23;4.43;;;2.10;;
58697;SDS011;44475;53.206;-6.106;2023-05-29T06:16:50;4.80;;;2.20;;
58697;SDS011;44475;53.206;-6.106;2023-05-29T06:19:16;5.55;;;2.30;;
58697;SDS011;44475;53.206;-6.106;2023-05-29T06:21:55;4.25;;;2.10;;
58697;SDS011;44475;53.206;-6.106;2023-05-29T06:24:21;3.90;;;2.10;;
58697;SDS011;44475;53.206;-6.106;2023-05-29T06:26:48;4.80;;;2.15;;
58697;SDS011;44475;53.206;-6.106;2023-05-29T06:29:15;5.07;;;2.08;;
58697;SDS011;44475;53.206;-6.106;2023-05-29T06:31:41;5.10;;;2.22;;
58697;SDS011;44475;53.206;-6.106;2023-05-29T06:34:08;6.95;;;2.47;;
58697;SDS011;44475;53.206;-6.106;2023-05-29T06:36:34;5.25;;;2.50;;
58697;SDS011;44475;53.206;-6.106;2023-05-29T06:39:01;4.50;;;2.38;;
58697;SDS011;44475;53.206;-6.106;2023-05-29T06:41:27;6.40;;;2.38;;
58697;SDS011;44475;53.206;-6.106;2023-05-29T06:43:54;4.53;;;2.15;;
58697;SDS011;44475;53.206;-6.106;2023-05-29T06:46:21;3.83;;;2.15;;
58697;SDS011;44475;53.206;-6.106;2023-05-29T06:48:47;6.00;;;2.55;;
58697;SDS011;44475;53.206;-6.106;2023-05-29T06:51:13;4.72;;;2.33;;
58697;SDS011;44475;53.206;-6.106;2023-05-29T06:53:46;5.22;;;2.15;;
58697;SDS011;44475;53.206;-6.106;2023-05-29T06:56:13;4.65;;;2.40;;
58697;SDS011;44475;53.206;-6.106;2023-05-29T06:58:40;6.20;;;2.30;;
58697;SDS011;44475;53.206;-6.106;2023-05-29T07:01:06;5.50;;;2.40;;
58697;SDS011;44475;53.206;-6.106;2023-05-29T07:03:33;4.53;;;2.38;;
58697;SDS011;44475;53.206;-6.106;2023-05-29T07:06:01;5.75;;;2.40;;
58697;SDS011;44475;53.206;-6.106;2023-05-29T07:08:31;5.75;;;2.40;;
58697;SDS011;44475;53.206;-6.106;2023-05-29T07:10:57;5.47;;;2.30;;
58697;SDS011;44475;53.206;-6.106;2023-05-29T07:13:24;5.68;;;2.47;;
58697;SDS011;44475;53.206;-6.106;2023-05-29T07:15:54;4.70;;;2.33;;
58697;SDS011;44475;53.206;-6.106;2023-05-29T07:18:27;5.43;;;2.40;;
58697;SDS011;44475;53.206;-6.106;2023-05-29T07:20:55;4.80;;;2.40;;
58697;SDS011;44475;53.206;-6.106;2023-05-29T07:23:22;5.53;;;2.40;;
58697;SDS011;44475;53.206;-6.106;2023-05-29T07:25:49;4.50;;;2.33;;
58697;SDS011;44475;53.206;-6.106;2023-05-29T07:28:15;4.82;;;2.22;;
58697;SDS011;44475;53.206;-6.106;2023-05-29T07:30:42;4.30;;;2.40;;
58697;SDS011;44475;53.206;-6.106;2023-05-29T07:33:08;6.10;;;2.50;;
58697;SDS011;44475;53.206;-6.106;2023-05-29T07:35:35;6.82;;;2.30;;
58697;SDS011;44475;53.206;-6.106;2023-05-29T07:38:03;4.05;;;2.22;;
58697;SDS011;44475;53.206;-6.106;2023-05-29T07:40:29;5.72;;;2.38;;
58697;SDS011;44475;53.206;-6.106;2023-05-29T07:42:58;6.28;;;2.40;;
58697;SDS011;44475;53.206;-6.106;2023-05-29T07:45:34;5.72;;;2.60;;
58697;SDS011;44475;53.206;-6.106;2023-05-29T07:48:00;5.13;;;2.20;;
58697;SDS011;44475;53.206;-6.106;2023-05-29T07:50:28;5.13;;;2.40;;
58697;SDS011;44475;53.206;-6.106;2023-05-29T07:52:55;5.15;;;2.45;;
58697;SDS011;44475;53.206;-6.106;2023-05-29T07:55:22;4.75;;;2.30;;
58697;SDS011;44475;53.206;-6.106;2023-05-29T07:57:49;4.30;;;2.42;;
58697;SDS011;44475;53.206;-6.106;2023-05-29T08:00:15;3.95;;;2.20;;
58697;SDS011;44475;53.206;-6.106;2023-05-29T08:02:44;5.15;;;2.40;;
58697;SDS011;44475;53.206;-6.106;2023-05-29T08:05:34;4.57;;;2.42;;
58697;SDS011;44475;53.206;-6.106;2023-05-29T08:08:06;6.43;;;2.80;;
58697;SDS011;44475;53.206;-6.106;2023-05-29T08:10:33;6.28;;;2.65;;
58697;SDS011;44475;53.206;-6.106;2023-05-29T08:13:00;6.20;;;2.50;;
58697;SDS011;44475;53.206;-6.106;2023-05-29T08:15:28;5.20;;;2.67;;
58697;SDS011;44475;53.206;-6.106;2023-05-29T08:17:56;4.93;;;2.50;;
58697;SDS011;44475;53.206;-6.106;2023-05-29T08:20:22;5.97;;;2.80;;
58697;SDS011;44475;53.206;-6.106;2023-05-29T08:22:48;6.70;;;2.60;;
58697;SDS011;44475;53.206;-6.106;2023-05-29T08:25:15;7.65;;;2.63;;
58697;SDS011;44475;53.206;-6.106;2023-05-29T08:27:41;5.72;;;2.63;;
58697;SDS011;44475;53.206;-6.106;2023-05-29T08:30:08;7.35;;;2.60;;
58697;SDS011;44475;53.206;-6.106;2023-05-29T08:32:35;8.48;;;2.85;;
58697;SDS011;44475;53.206;-6.106;2023-05-29T08:35:01;5.80;;;2.47;;
58697;SDS011;44475;53.206;-6.106;2023-05-29T08:37:29;6.55;;;2.60;;
58697;SDS011;44475;53.206;-6.106;2023-05-29T08:39:56;5.72;;;2.60;;
58697;SDS011;44475;53.206;-6.106;2023-05-29T08:42:32;4.75;;;2.50;;
58697;SDS011;44475;53.206;-6.106;2023-05-29T08:45:02;7.40;;;2.80;;
58697;SDS011;44475;53.206;-6.106;2023-05-29T08:47:33;6.80;;;2.50;;
58697;SDS011;44475;53.206;-6.106;2023-05-29T08:50:00;5.88;;;2.70;;
58697;SDS011;44475;53.206;-6.106;2023-05-29T08:52:29;7.05;;;2.53;;
58697;SDS011;44475;53.206;-6.106;2023-05-29T08:55:00;8.27;;;2.78;;
58697;SDS011;44475;53.206;-6.106;2023-05-29T08:57:28;6.18;;;2.60;;
58697;SDS011;44475;53.206;-6.106;2023-05-29T08:59:55;5.50;;;2.47;;
58697;SDS011;44475;53.206;-6.106;2023-05-29T09:02:22;7.15;;;2.63;;
58697;SDS011;44475;53.206;-6.106;2023-05-29T09:04:49;5.72;;;2.50;;
58697;SDS011;44475;53.206;-6.106;2023-05-29T09:07:21;6.85;;;2.58;;
58697;SDS011;44475;53.206;-6.106;2023-05-29T09:09:48;6.25;;;2.50;;
58697;SDS011;44475;53.206;-6.106;2023-05-29T09:12:14;8.13;;;2.63;;
58697;SDS011;44475;53.206;-6.106;2023-05-29T09:14:42;11.40;;;2.70;;
58697;SDS011;44475;53.206;-6.106;2023-05-29T09:17:10;9.75;;;2.70;;
58697;SDS011;44475;53.206;-6.106;2023-05-29T09:19:38;7.82;;;3.05;;
58697;SDS011;44475;53.206;-6.106;2023-05-29T09:22:12;6.68;;;2.40;;
58697;SDS011;44475;53.206;-6.106;2023-05-29T09:24:46;6.28;;;2.55;;
58697;SDS011;44475;53.206;-6.106;2023-05-29T09:27:13;5.72;;;2.20;;
58697;SDS011;44475;53.206;-6.106;2023-05-29T09:29:41;5.13;;;2.40;;
58697;SDS011;44475;53.206;-6.106;2023-05-29T09:32:08;4.43;;;2.38;;
58697;SDS011;44475;53.206;-6.106;2023-05-29T09:34:42;6.82;;;2.65;;
58697;SDS011;44475;53.206;-6.106;2023-05-29T09:37:09;5.57;;;2.38;;
58697;SDS011;44475;53.206;-6.106;2023-05-29T09:39:44;4.82;;;2.50;;
58697;SDS011;44475;53.206;-6.106;2023-05-29T09:42:12;6.55;;;2.33;;
58697;SDS011;44475;53.206;-6.106;2023-05-29T09:44:42;5.10;;;2.47;;
58697;SDS011;44475;53.206;-6.106;2023-05-29T09:47:18;4.97;;;2.42;;
58697;SDS011;44475;53.206;-6.106;2023-05-29T09:49:45;8.23;;;2.40;;
58697;SDS011;44475;53.206;-6.106;2023-05-29T09:52:12;5.07;;;2.40;;
58697;SDS011;44475;53.206;-6.106;2023-05-29T09:54:39;8.20;;;2.50;;
58697;SDS011;44475;53.206;-6.106;2023-05-29T09:57:07;5.78;;;2.22;;
58697;SDS011;44475;53.206;-6.106;2023-05-29T09:59:35;10.80;;;2.78;;
58697;SDS011;44475;53.206;-6.106;2023-05-29T10:02:02;6.68;;;2.58;;
58697;SDS011;44475;53.206;-6.106;2023-05-29T10:04:30;7.13;;;2.70;;
58697;SDS011;44475;53.206;-6.106;2023-05-29T10:07:00;7.57;;;2.83;;
58697;SDS011;44475;53.206;-6.106;2023-05-29T10:09:44;8.80;;;2.60;;
58697;SDS011;44475;53.206;-6.106;2023-05-29T10:12:13;6.03;;;2.63;;
58697;SDS011;44475;53.206;-6.106;2023-05-29T10:14:42;6.78;;;2.40;;
58697;SDS011;44475;53.206;-6.106;2023-05-29T10:17:10;7.30;;;2.85;;
58697;SDS011;44475;53.206;-6.106;2023-05-29T10:19:39;10.23;;;2.58;;
58697;SDS011;44475;53.206;-6.106;2023-05-29T10:22:05;8.10;;;2.50;;
58697;SDS011;44475;53.206;-6.106;2023-05-29T10:24:32;7.85;;;2.70;;
58697;SDS011;44475;53.206;-6.106;2023-05-29T10:27:02;6.35;;;2.50;;
58697;SDS011;44475;53.206;-6.106;2023-05-29T10:29:39;5.93;;;2.55;;
58697;SDS011;44475;53.206;-6.106;2023-05-29T10:37:41;6.70;;;2.40;;
58697;SDS011;44475;53.206;-6.106;2023-05-29T10:40:22;6.72;;;2.40;;
58697;SDS011;44475;53.206;-6.106;2023-05-29T10:42:51;8.23;;;2.60;;
58697;SDS011;44475;53.206;-6.106;2023-05-29T10:50:36;6.68;;;2.58;;
58697;SDS011;44475;53.206;-6.106;2023-05-29T10:53:22;8.63;;;2.35;;
58697;SDS011;44475;53.206;-6.106;2023-05-29T10:55:51;5.25;;;2.53;;
58697;SDS011;44475;53.206;-6.106;2023-05-29T10:58:19;9.73;;;2.40;;
58697;SDS011;44475;53.206;-6.106;2023-05-29T11:00:50;8.45;;;2.38;;
58697;SDS011;44475;53.206;-6.106;2023-05-29T11:03:22;5.78;;;2.42;;
58697;SDS011;44475;53.206;-6.106;2023-05-29T11:06:00;8.30;;;2.65;;
58697;SDS011;44475;53.206;-6.106;2023-05-29T11:08:33;6.70;;;2.60;;
58697;SDS011;44475;53.206;-6.106;2023-05-29T11:13:39;8.40;;;2.40;;
58697;SDS011;44475;53.206;-6.106;2023-05-29T11:18:46;6.35;;;2.38;;
58697;SDS011;44475;53.206;-6.106;2023-05-29T11:21:38;5.80;;;2.45;;
58697;SDS011;44475;53.206;-6.106;2023-05-29T11:24:00;4.95;;;2.50;;
58697;SDS011;44475;53.206;-6.106;2023-05-29T11:26:28;9.07;;;2.40;;
58697;SDS011;44475;53.206;-6.106;2023-05-29T11:28:59;6.90;;;2.40;;
58697;SDS011;44475;53.206;-6.106;2023-05-29T11:31:28;6.93;;;2.50;;
58697;SDS011;44475;53.206;-6.106;2023-05-29T11:34:01;6.07;;;2.20;;
58697;SDS011;44475;53.206;-6.106;2023-05-29T11:38:58;6.97;;;2.30;;
58697;SDS011;44475;53.206;-6.106;2023-05-29T11:41:25;8.60;;;2.28;;
58697;SDS011;44475;53.206;-6.106;2023-05-29T11:44:02;6.85;;;2.40;;
58697;SDS011;44475;53.206;-6.106;2023-05-29T11:46:31;9.13;;;2.65;;
58697;SDS011;44475;53.206;-6.106;2023-05-29T11:49:00;6.30;;;2.33;;
58697;SDS011;44475;53.206;-6.106;2023-05-29T11:51:27;7.78;;;2.30;;
58697;SDS011;44475;53.206;-6.106;2023-05-29T11:53:53;6.95;;;2.47;;
58697;SDS011;44475;53.206;-6.106;2023-05-29T11:56:26;5.87;;;2.33;;
58697;SDS011;44475;53.206;-6.106;2023-05-29T11:58:53;6.75;;;2.30;;
58697;SDS011;44475;53.206;-6.106;2023-05-29T12:01:22;6.53;;;2.38;;
58697;SDS011;44475;53.206;-6.106;2023-05-29T12:03:50;5.25;;;2.42;;
58697;SDS011;44475;53.206;-6.106;2023-05-29T12:06:16;7.15;;;2.33;;
58697;SDS011;44475;53.206;-6.106;2023-05-29T12:09:00;6.13;;;2.25;;
58697;SDS011;44475;53.206;-6.106;2023-05-29T12:11:29;7.75;;;2.33;;
58697;SDS011;44475;53.206;-6.106;2023-05-29T12:13:58;6.00;;;2.30;;
58697;SDS011;44475;53.206;-6.106;2023-05-29T12:16:26;6.15;;;2.15;;
58697;SDS011;44475;53.206;-6.106;2023-05-29T12:18:59;6.38;;;2.40;;
58697;SDS011;44475;53.206;-6.106;2023-05-29T12:21:26;6.53;;;2.22;;
58697;SDS011;44475;53.206;-6.106;2023-05-29T12:23:53;7.53;;;2.50;;
58697;SDS011;44475;53.206;-6.106;2023-05-29T12:26:23;4.07;;;2.30;;
58697;SDS011;44475;53.206;-6.106;2023-05-29T12:28:52;7.68;;;2.60;;
58697;SDS011;44475;53.206;-6.106;2023-05-29T12:31:28;5.95;;;2.28;;
58697;SDS011;44475;53.206;-6.106;2023-05-29T12:34:02;6.47;;;2.20;;
58697;SDS011;44475;53.206;-6.106;2023-05-29T12:36:34;6.75;;;2.30;;
58697;SDS011;44475;53.206;-6.106;2023-05-29T12:39:04;7.28;;;2.17;;
58697;SDS011;44475;53.206;-6.106;2023-05-29T12:41:34;7.35;;;2.50;;
58697;SDS011;44475;53.206;-6.106;2023-05-29T12:44:02;6.72;;;2.08;;
58697;SDS011;44475;53.206;-6.106;2023-05-29T12:46:40;7.30;;;2.40;;
58697;SDS011;44475;53.206;-6.106;2023-05-29T12:49:16;4.88;;;2.20;;
58697;SDS011;44475;53.206;-6.106;2023-05-29T12:51:50;7.55;;;2.22;;
58697;SDS011;44475;53.206;-6.106;2023-05-29T12:54:17;5.45;;;2.22;;
58697;SDS011;44475;53.206;-6.106;2023-05-29T12:56:44;6.07;;;2.30;;
58697;SDS011;44475;53.206;-6.106;2023-05-29T12:59:11;12.23;;;2.50;;
58697;SDS011;44475;53.206;-6.106;2023-05-29T13:01:38;15.77;;;3.65;;
58697;SDS011;44475;53.206;-6.106;2023-05-29T13:04:05;12.27;;;2.30;;
58697;SDS011;44475;53.206;-6.106;2023-05-29T13:06:33;8.98;;;3.03;;
58697;SDS011;44475;53.206;-6.106;2023-05-29T13:09:00;21.55;;;3.50;;
58697;SDS011;44475;53.206;-6.106;2023-05-29T13:11:27;12.55;;;3.53;;
58697;SDS011;44475;53.206;-6.106;2023-05-29T13:13:53;11.55;;;3.00;;
58697;SDS011;44475;53.206;-6.106;2023-05-29T13:16:19;10.88;;;2.97;;
58697;SDS011;44475;53.206;-6.106;2023-05-29T13:18:46;14.55;;;3.00;;
58697;SDS011;44475;53.206;-6.106;2023-05-29T13:21:12;13.38;;;2.70;;
58697;SDS011;44475;53.206;-6.106;2023-05-29T13:23:39;11.52;;;3.40;;
58697;SDS011;44475;53.206;-6.106;2023-05-29T13:26:05;11.30;;;2.95;;
58697;SDS011;44475;53.206;-6.106;2023-05-29T13:28:32;12.85;;;2.78;;
58697;SDS011;44475;53.206;-6.106;2023-05-29T13:30:59;9.10;;;2.60;;
58697;SDS011;44475;53.206;-6.106;2023-05-29T13:33:25;10.68;;;2.50;;
58697;SDS011;44475;53.206;-6.106;2023-05-29T13:35:51;5.93;;;2.47;;
58697;SDS011;44475;53.206;-6.106;2023-05-29T13:38:18;9.32;;;2.70;;
58697;SDS011;44475;53.206;-6.106;2023-05-29T13:40:44;10.38;;;2.60;;
58697;SDS011;44475;53.206;-6.106;2023-05-29T13:43:11;6.30;;;2.67;;
58697;SDS011;44475;53.206;-6.106;2023-05-29T13:45:37;6.38;;;2.30;;
58697;SDS011;44475;53.206;-6.106;2023-05-29T13:48:05;6.28;;;2.42;;
58697;SDS011;44475;53.206;-6.106;2023-05-29T13:50:31;8.35;;;2.50;;
58697;SDS011;44475;53.206;-6.106;2023-05-29T13:52:58;6.60;;;2.50;;
58697;SDS011;44475;53.206;-6.106;2023-05-29T13:55:25;6.35;;;2.50;;
58697;SDS011;44475;53.206;-6.106;2023-05-29T13:57:51;6.90;;;2.60;;
58697;SDS011;44475;53.206;-6.106;2023-05-29T14:00:18;8.52;;;2.65;;
58697;SDS011;44475;53.206;-6.106;2023-05-29T14:02:44;8.05;;;2.53;;
58697;SDS011;44475;53.206;-6.106;2023-05-29T14:05:11;8.48;;;2.60;;
58697;SDS011;44475;53.206;-6.106;2023-05-29T14:07:37;5.05;;;2.40;;
58697;SDS011;44475;53.206;-6.106;2023-05-29T14:10:03;5.32;;;2.50;;
58697;SDS011;44475;53.206;-6.106;2023-05-29T14:12:30;5.63;;;2.35;;
58697;SDS011;44475;53.206;-6.106;2023-05-29T14:14:57;5.40;;;2.25;;
58697;SDS011;44475;53.206;-6.106;2023-05-29T14:17:23;5.70;;;2.35;;
58697;SDS011;44475;53.206;-6.106;2023-05-29T14:19:51;5.35;;;2.22;;
58697;SDS011;44475;53.206;-6.106;2023-05-29T14:22:17;8.07;;;2.28;;
58697;SDS011;44475;53.206;-6.106;2023-05-29T14:24:43;5.38;;;2.10;;
58697;SDS011;44475;53.206;-6.106;2023-05-29T14:27:10;5.72;;;2.30;;
58697;SDS011;44475;53.206;-6.106;2023-05-29T14:29:36;6.47;;;2.38;;
58697;SDS011;44475;53.206;-6.106;2023-05-29T14:32:02;5.60;;;2.58;;
58697;SDS011;44475;53.206;-6.106;2023-05-29T14:34:29;6.20;;;2.35;;
58697;SDS011;44475;53.206;-6.106;2023-05-29T14:36:55;5.05;;;2.25;;
58697;SDS011;44475;53.206;-6.106;2023-05-29T14:39:21;4.65;;;2.30;;
58697;SDS011;44475;53.206;-6.106;2023-05-29T14:41:47;8.10;;;2.40;;
58697;SDS011;44475;53.206;-6.106;2023-05-29T14:44:14;5.30;;;2.50;;
58697;SDS011;44475;53.206;-6.106;2023-05-29T14:46:41;7.45;;;2.35;;
58697;SDS011;44475;53.206;-6.106;2023-05-29T14:49:07;7.03;;;2.40;;
58697;SDS011;44475;53.206;-6.106;2023-05-29T14:51:33;5.75;;;2.47;;
58697;SDS011;44475;53.206;-6.106;2023-05-29T14:54:01;6.45;;;2.45;;
58697;SDS011;44475;53.206;-6.106;2023-05-29T14:56:27;5.63;;;2.20;;
58697;SDS011;44475;53.206;-6.106;2023-05-29T14:58:54;4.90;;;2.30;;
58697;SDS011;44475;53.206;-6.106;2023-05-29T15:01:20;6.75;;;2.38;;
58697;SDS011;44475;53.206;-6.106;2023-05-29T15:03:46;5.93;;;2.25;;
58697;SDS011;44475;53.206;-6.106;2023-05-29T15:06:13;8.30;;;2.67;;
58697;SDS011;44475;53.206;-6.106;2023-05-29T15:08:39;6.28;;;2.22;;
58697;SDS011;44475;53.206;-6.106;2023-05-29T15:11:08;4.38;;;2.25;;